createdAt,value
2019-01-19T00:00:01.035Z,32.8
2019-01-19T00:00:51.001Z,33
2019-01-19T00:01:41.703Z,33.1
2019-01-19T00:02:31.763Z,33.3
2019-01-19T00:03:21.953Z,33.4
2019-01-19T00:04:11.213Z,33.6
2019-01-19T00:05:01.545Z,33.7
2019-01-19T00:05:51.090Z,33.8
2019-01-19T00:06:41.408Z,33.8
2019-01-19T00:07:32.303Z,33.9
2019-01-19T00:08:22.312Z,34
2019-01-19T00:09:12.306Z,34.1
2019-01-19T00:10:02.628Z,34.1
2019-01-19T00:10:53.068Z,33.7
2019-01-19T00:11:42.233Z,33.5
2019-01-19T00:12:32.578Z,33.2
2019-01-19T00:13:23.158Z,32.7
2019-01-19T00:14:13.012Z,32.2
2019-01-19T00:15:03.049Z,31.9
2019-01-19T00:15:51.950Z,31.6
2019-01-19T00:16:42.537Z,31.4
2019-01-19T00:17:31.231Z,31.3
2019-01-19T00:18:23.624Z,31.1
2019-01-19T00:19:12.442Z,30.9
2019-01-19T00:20:04.125Z,30.8
2019-01-19T00:20:52.634Z,30.7
2019-01-19T00:21:43.474Z,30.3
2019-01-19T00:22:33.217Z,29.6
2019-01-19T00:23:23.618Z,30.3
2019-01-19T00:24:12.800Z,30.8
2019-01-19T00:25:03.154Z,31.1
2019-01-19T00:25:52.905Z,31.4
2019-01-19T00:26:42.750Z,31.8
2019-01-19T00:27:33.609Z,32.1
2019-01-19T00:28:21.713Z,32.3
2019-01-19T00:29:13.699Z,32.5
2019-01-19T00:30:03.557Z,32.7
2019-01-19T00:30:53.579Z,32.9
2019-01-19T00:31:44.149Z,33
2019-01-19T00:32:33.374Z,33.2
2019-01-19T00:33:23.550Z,33.3
2019-01-19T00:34:14.149Z,33.4
2019-01-19T00:35:04.514Z,33.5
2019-01-19T00:35:53.606Z,33.6
2019-01-19T00:36:44.836Z,33.7
2019-01-19T00:37:33.502Z,33.8
2019-01-19T00:38:24.627Z,33.8
2019-01-19T00:39:14.121Z,33.9
2019-01-19T00:40:03.094Z,34
2019-01-19T00:40:54.493Z,34.1
2019-01-19T00:41:44.828Z,34.1
2019-01-19T00:42:34.858Z,33.9
2019-01-19T00:43:23.651Z,33.6
2019-01-19T00:44:13.028Z,33.2
2019-01-19T00:45:05.158Z,32.8
2019-01-19T00:45:54.833Z,32.4
2019-01-19T00:46:45.468Z,32.1
2019-01-19T00:47:35.213Z,31.9
2019-01-19T00:48:24.708Z,31.6
2019-01-19T00:49:14.768Z,31.4
2019-01-19T00:50:05.738Z,31.3
2019-01-19T00:50:54.608Z,31.1
2019-01-19T00:51:45.470Z,31.1
2019-01-19T00:52:35.555Z,30.8
2019-01-19T00:53:25.043Z,30.6
2019-01-19T00:54:15.226Z,29.7
2019-01-19T00:55:05.499Z,30.2
2019-01-19T00:55:55.195Z,30.7
2019-01-19T00:56:45.820Z,31
2019-01-19T00:57:35.947Z,31.4
2019-01-19T00:58:25.967Z,31.7
2019-01-19T00:59:16.040Z,32
2019-01-19T01:00:05.058Z,32.2
2019-01-19T01:00:54.767Z,32.4
2019-01-19T01:01:46.457Z,32.6
2019-01-19T01:02:35.985Z,32.8
2019-01-19T01:03:25.172Z,32.9
2019-01-19T01:04:15.769Z,33.1
2019-01-19T01:05:05.887Z,33.2
2019-01-19T01:05:55.167Z,33.3
2019-01-19T01:06:46.047Z,33.4
2019-01-19T01:07:36.886Z,33.5
2019-01-19T01:08:25.809Z,33.6
2019-01-19T01:09:15.861Z,33.6
2019-01-19T01:10:06.587Z,33.7
2019-01-19T01:10:56.242Z,33.8
2019-01-19T01:11:45.711Z,33.8
2019-01-19T01:12:36.659Z,33.9
2019-01-19T01:13:26.696Z,33.9
2019-01-19T01:14:17.570Z,34
2019-01-19T01:15:07.453Z,34.1
2019-01-19T01:15:56.911Z,33.8
2019-01-19T01:16:45.844Z,32.8
2019-01-19T01:17:37.236Z,31
2019-01-19T01:18:25.919Z,29.6
2019-01-19T01:19:16.564Z,28.4
2019-01-19T01:20:05.907Z,26.8
2019-01-19T01:20:56.510Z,25.5
2019-01-19T01:21:47.568Z,25.6
2019-01-19T01:22:36.076Z,25.9
2019-01-19T01:23:27.356Z,27.5
2019-01-19T01:24:16.965Z,28.8
2019-01-19T01:25:07.291Z,29.8
2019-01-19T01:25:56.769Z,30.5
2019-01-19T01:26:46.546Z,31.1
2019-01-19T01:27:37.253Z,31.6
2019-01-19T01:28:26.656Z,31.9
2019-01-19T01:29:17.546Z,32.3
2019-01-19T01:30:07.477Z,32.6
2019-01-19T01:30:57.656Z,32.8
2019-01-19T01:31:47.731Z,33
2019-01-19T01:32:37.281Z,33.1
2019-01-19T01:33:27.941Z,33.3
2019-01-19T01:34:16.903Z,33.4
2019-01-19T01:35:07.553Z,33.5
2019-01-19T01:35:57.777Z,33.6
2019-01-19T01:36:48.063Z,33.8
2019-01-19T01:37:37.578Z,33.8
2019-01-19T01:38:27.955Z,33.9
2019-01-19T01:39:16.408Z,34
2019-01-19T01:40:06.515Z,34.1
2019-01-19T01:40:58.876Z,34.1
2019-01-19T01:41:47.980Z,34.1
2019-01-19T01:42:38.182Z,33.8
2019-01-19T01:43:28.644Z,33.5
2019-01-19T01:44:18.887Z,33.1
2019-01-19T01:45:08.389Z,32.7
2019-01-19T01:45:57.808Z,32.2
2019-01-19T01:46:48.959Z,31.8
2019-01-19T01:47:39.079Z,31.5
2019-01-19T01:48:29.365Z,31.3
2019-01-19T01:49:19.695Z,31
2019-01-19T01:50:09.483Z,30.8
2019-01-19T01:50:59.786Z,30.6
2019-01-19T01:51:49.034Z,30.5
2019-01-19T01:52:38.814Z,30.4
2019-01-19T01:53:29.242Z,30
2019-01-19T01:54:19.759Z,29.5
2019-01-19T01:55:09.280Z,30.2
2019-01-19T01:55:59.599Z,30.7
2019-01-19T01:56:49.652Z,31
2019-01-19T01:57:39.961Z,31.4
2019-01-19T01:58:29.764Z,31.8
2019-01-19T01:59:20.393Z,32
2019-01-19T02:00:10.884Z,32.3
2019-01-19T02:00:59.918Z,32.4
2019-01-19T02:01:50.064Z,32.6
2019-01-19T02:02:40.345Z,32.8
2019-01-19T02:03:30.475Z,33
2019-01-19T02:04:20.455Z,33.1
2019-01-19T02:05:10.245Z,33.2
2019-01-19T02:06:00.019Z,33.3
2019-01-19T02:06:48.992Z,33.4
2019-01-19T02:07:40.371Z,33.5
2019-01-19T02:08:30.175Z,33.6
2019-01-19T02:09:20.778Z,33.6
2019-01-19T02:10:11.451Z,33.8
2019-01-19T02:10:59.780Z,33.8
2019-01-19T02:11:50.451Z,33.9
2019-01-19T02:12:39.883Z,33.9
2019-01-19T02:13:29.725Z,34
2019-01-19T02:14:20.012Z,34.1
2019-01-19T02:15:10.058Z,34.1
2019-01-19T02:16:00.957Z,33.6
2019-01-19T02:16:50.777Z,33.4
2019-01-19T02:17:41.385Z,33.1
2019-01-19T02:18:31.215Z,32.8
2019-01-19T02:19:20.672Z,32.4
2019-01-19T02:20:10.657Z,32.2
2019-01-19T02:21:01.025Z,32
2019-01-19T02:21:50.516Z,31.8
2019-01-19T02:22:41.115Z,31.6
2019-01-19T02:23:32.070Z,31.4
2019-01-19T02:24:21.279Z,31.3
2019-01-19T02:25:11.575Z,31.1
2019-01-19T02:26:01.162Z,30.9
2019-01-19T02:26:52.009Z,30.5
2019-01-19T02:27:41.456Z,29.7
2019-01-19T02:28:31.517Z,30.3
2019-01-19T02:29:22.156Z,30.8
2019-01-19T02:30:12.395Z,31.1
2019-01-19T02:31:02.359Z,31.4
2019-01-19T02:31:50.729Z,31.8
2019-01-19T02:32:41.916Z,31.9
2019-01-19T02:33:32.737Z,32.2
2019-01-19T02:34:21.962Z,32.4
2019-01-19T02:35:12.329Z,32.6
2019-01-19T02:36:01.556Z,32.7
2019-01-19T02:36:53.021Z,32.8
2019-01-19T02:37:42.754Z,32.9
2019-01-19T02:38:32.819Z,33.1
2019-01-19T02:39:22.896Z,33.2
2019-01-19T02:40:11.893Z,33.3
2019-01-19T02:41:02.204Z,33.3
2019-01-19T02:41:51.588Z,33.4
2019-01-19T02:42:42.913Z,33.5
2019-01-19T02:43:31.588Z,33.6
2019-01-19T02:44:21.690Z,33.6
2019-01-19T02:45:12.896Z,33.7
2019-01-19T02:46:03.703Z,33.8
2019-01-19T02:46:52.829Z,33.9
2019-01-19T02:47:43.221Z,33.2
2019-01-19T02:48:32.927Z,32.3
2019-01-19T02:49:23.275Z,30.3
2019-01-19T02:50:12.132Z,29.1
2019-01-19T02:51:02.936Z,27.9
2019-01-19T02:51:52.186Z,26.2
2019-01-19T02:52:42.845Z,24.8
2019-01-19T02:53:32.877Z,24.8
2019-01-19T02:54:22.020Z,25
2019-01-19T02:55:15.578Z,26.6
2019-01-19T02:56:03.111Z,28.1
2019-01-19T02:56:52.804Z,29.1
2019-01-19T02:57:43.657Z,30
2019-01-19T02:58:33.783Z,30.7
2019-01-19T02:59:23.193Z,31.3
2019-01-19T03:00:14.008Z,31.7
2019-01-19T03:01:03.895Z,32
2019-01-19T03:01:52.888Z,32.3
2019-01-19T03:02:44.484Z,32.6
2019-01-19T03:03:34.300Z,32.8
2019-01-19T03:04:24.198Z,33
2019-01-19T03:05:14.760Z,33.1
2019-01-19T03:08:46.878Z,33.6
2019-01-19T03:09:37.049Z,33.8
2019-01-19T03:10:27.582Z,33.9
2019-01-19T03:11:18.023Z,33.9
2019-01-19T03:12:07.181Z,34
2019-01-19T03:12:57.518Z,34.1
2019-01-19T03:13:47.579Z,34.1
2019-01-19T03:14:37.624Z,34.3
2019-01-19T03:15:28.262Z,33.8
2019-01-19T03:16:18.037Z,33.6
2019-01-19T03:17:08.142Z,33.3
2019-01-19T03:17:57.908Z,32.8
2019-01-19T03:18:48.031Z,32.3
2019-01-19T03:19:37.911Z,32
2019-01-19T03:20:28.553Z,31.8
2019-01-19T03:21:18.304Z,31.5
2019-01-19T03:22:08.060Z,31.3
2019-01-19T03:22:58.462Z,31.1
2019-01-19T03:23:48.788Z,30.9
2019-01-19T03:24:38.783Z,30.9
2019-01-19T03:25:27.901Z,30.7
2019-01-19T03:26:18.934Z,29.9
2019-01-19T03:27:08.514Z,29.9
2019-01-19T03:27:59.299Z,30.6
2019-01-19T03:28:49.118Z,30.9
2019-01-19T03:29:39.486Z,31.3
2019-01-19T03:30:29.707Z,31.6
2019-01-19T03:31:19.455Z,31.9
2019-01-19T03:32:09.895Z,32.1
2019-01-19T03:33:00.319Z,32.4
2019-01-19T03:33:49.394Z,32.5
2019-01-19T03:34:39.221Z,32.7
2019-01-19T03:35:29.805Z,32.9
2019-01-19T03:36:19.854Z,33
2019-01-19T03:37:09.942Z,33.1
2019-01-19T03:37:59.173Z,33.3
2019-01-19T03:38:50.043Z,33.3
2019-01-19T03:39:39.505Z,33.4
2019-01-19T03:40:30.237Z,33.5
2019-01-19T03:41:19.639Z,33.6
2019-01-19T03:42:09.505Z,33.6
2019-01-19T03:42:59.733Z,33.7
2019-01-19T03:43:49.647Z,33.8
2019-01-19T03:44:39.664Z,33.8
2019-01-19T03:45:30.795Z,33.9
2019-01-19T03:46:20.312Z,33.9
2019-01-19T03:47:09.181Z,33.9
2019-01-19T03:48:00.129Z,34
2019-01-19T03:48:50.663Z,34
2019-01-19T03:49:40.458Z,34.1
2019-01-19T03:50:30.552Z,34.1
2019-01-19T03:51:20.573Z,33.6
2019-01-19T03:52:09.802Z,33.3
2019-01-19T03:53:00.978Z,33
2019-01-19T03:53:51.067Z,32.7
2019-01-19T03:54:42.718Z,32.5
2019-01-19T03:55:31.226Z,32.3
2019-01-19T03:56:21.176Z,32.1
2019-01-19T03:57:11.566Z,31.9
2019-01-19T03:58:01.346Z,31.7
2019-01-19T03:58:50.299Z,31.6
2019-01-19T03:59:40.666Z,31.4
2019-01-19T04:00:30.992Z,31.3
2019-01-19T04:01:21.158Z,31.1
2019-01-19T04:02:11.123Z,30.7
2019-01-19T04:03:01.421Z,29.8
2019-01-19T04:03:50.456Z,30.3
2019-01-19T04:04:40.964Z,30.8
2019-01-19T04:05:31.564Z,31
2019-01-19T04:06:22.528Z,31.3
2019-01-19T04:07:11.676Z,31.6
2019-01-19T04:08:01.793Z,31.8
2019-01-19T04:08:51.976Z,32
2019-01-19T04:09:41.072Z,32.2
2019-01-19T04:10:31.003Z,32.4
2019-01-19T04:11:21.433Z,32.6
2019-01-19T04:12:11.205Z,32.7
2019-01-19T04:13:01.930Z,32.8
2019-01-19T04:13:51.398Z,32.9
2019-01-19T04:14:41.255Z,33
2019-01-19T04:15:32.240Z,33.1
2019-01-19T04:16:21.785Z,33.2
2019-01-19T04:17:12.008Z,33.3
2019-01-19T04:18:02.742Z,33.3
2019-01-19T04:18:51.869Z,33.2
2019-01-19T04:19:42.532Z,32.2
2019-01-19T04:20:32.907Z,30.6
2019-01-19T04:21:21.940Z,29.2
2019-01-19T04:22:11.427Z,28.1
2019-01-19T04:23:02.802Z,26.6
2019-01-19T04:23:52.515Z,24.8
2019-01-19T04:24:43.040Z,24.3
2019-01-19T04:25:32.820Z,24.3
2019-01-19T04:26:23.572Z,25.5
2019-01-19T04:27:13.300Z,27
2019-01-19T04:28:03.127Z,28.1
2019-01-19T04:28:53.222Z,29.2
2019-01-19T04:29:43.217Z,30
2019-01-19T04:30:33.219Z,30.7
2019-01-19T04:31:22.529Z,31.2
2019-01-19T04:32:13.494Z,31.5
2019-01-19T04:33:03.159Z,31.8
2019-01-19T04:33:53.800Z,32.1
2019-01-19T04:34:43.585Z,32.4
2019-01-19T04:35:34.206Z,32.6
2019-01-19T04:36:31.095Z,32.8
2019-01-19T04:37:13.378Z,32.9
2019-01-19T04:38:03.506Z,33
2019-01-19T04:38:54.159Z,33.1
2019-01-19T04:39:44.205Z,33.3
2019-01-19T04:40:33.966Z,33.3
2019-01-19T04:41:23.818Z,33.4
2019-01-19T04:42:14.494Z,33.6
2019-01-19T04:43:04.673Z,33.6
2019-01-19T04:43:54.164Z,33.6
2019-01-19T04:44:44.533Z,33.7
2019-01-19T04:45:34.927Z,33.8
2019-01-19T04:46:23.651Z,33.8
2019-01-19T04:47:14.451Z,33.9
2019-01-19T04:48:04.809Z,34
2019-01-19T04:48:55.106Z,34
2019-01-19T04:49:45.146Z,34.1
2019-01-19T04:50:35.198Z,34.1
2019-01-19T04:51:25.350Z,34.2
2019-01-19T04:52:14.736Z,33.8
2019-01-19T04:53:04.313Z,33.6
2019-01-19T04:53:54.888Z,33.2
2019-01-19T04:54:44.685Z,32.8
2019-01-19T04:55:34.988Z,32.4
2019-01-19T04:56:25.300Z,32.2
2019-01-19T04:57:15.400Z,31.9
2019-01-19T04:58:05.406Z,31.8
2019-01-19T04:58:54.935Z,31.6
2019-01-19T04:59:45.787Z,31.4
2019-01-19T05:00:34.906Z,31.3
2019-01-19T05:01:25.950Z,31.3
2019-01-19T05:02:15.454Z,30.9
2019-01-19T05:03:05.569Z,30.2
2019-01-19T05:03:55.326Z,29.9
2019-01-19T05:04:45.626Z,30.6
2019-01-19T05:05:34.995Z,30.9
2019-01-19T05:06:35.626Z,31.3
2019-01-19T05:07:15.391Z,31.6
2019-01-19T05:08:05.033Z,31.8
2019-01-19T05:08:55.932Z,32
2019-01-19T05:09:45.955Z,32.2
2019-01-19T05:10:36.038Z,32.4
2019-01-19T05:11:25.898Z,32.6
2019-01-19T05:12:15.586Z,32.8
2019-01-19T05:13:06.153Z,32.9
2019-01-19T05:13:56.525Z,32.9
2019-01-19T05:14:46.018Z,33.1
2019-01-19T05:15:36.106Z,33.1
2019-01-19T05:16:26.630Z,33.2
2019-01-19T05:17:16.456Z,33.3
2019-01-19T05:18:05.504Z,33.3
2019-01-19T05:18:55.486Z,33.4
2019-01-19T05:19:46.702Z,33.4
2019-01-19T05:20:35.662Z,33.6
2019-01-19T05:21:25.833Z,33.6
2019-01-19T05:22:16.122Z,33.7
2019-01-19T05:23:06.909Z,33.7
2019-01-19T05:23:57.139Z,33.8
2019-01-19T05:24:46.205Z,33.8
2019-01-19T05:25:36.109Z,33.8
2019-01-19T05:26:26.328Z,33.9
2019-01-19T05:27:16.332Z,33.9
2019-01-19T05:28:06.980Z,33.9
2019-01-19T05:28:57.512Z,33.9
2019-01-19T05:29:47.548Z,34
2019-01-19T05:30:36.735Z,34
2019-01-19T05:31:27.417Z,34.1
2019-01-19T05:32:17.684Z,34.1
2019-01-19T05:33:06.692Z,33.5
2019-01-19T05:33:57.270Z,33.3
2019-01-19T05:34:47.859Z,32.9
2019-01-19T05:35:37.626Z,32.4
2019-01-19T05:36:27.538Z,32
2019-01-19T05:37:17.303Z,31.6
2019-01-19T05:38:09.461Z,31.4
2019-01-19T05:38:57.175Z,31.1
2019-01-19T05:39:48.069Z,30.9
2019-01-19T05:40:37.196Z,30.8
2019-01-19T05:41:28.134Z,30.6
2019-01-19T05:42:18.442Z,30.4
2019-01-19T05:43:07.701Z,30.1
2019-01-19T05:43:58.306Z,29.3
2019-01-19T05:44:49.234Z,29.7
2019-01-19T05:45:38.351Z,30.2
2019-01-19T05:46:31.719Z,30.6
2019-01-19T05:47:18.466Z,30.9
2019-01-19T05:48:09.156Z,31.3
2019-01-19T05:48:58.853Z,31.5
2019-01-19T05:49:48.413Z,31.8
2019-01-19T05:50:38.791Z,31.7
2019-01-19T05:51:28.195Z,31.6
2019-01-19T05:52:18.053Z,31.4
2019-01-19T05:53:08.138Z,31.4
2019-01-19T05:53:58.995Z,31.3
2019-01-19T05:54:49.047Z,31.1
2019-01-19T05:55:38.725Z,30.9
2019-01-19T05:56:28.199Z,30.8
2019-01-19T05:57:19.231Z,30.8
2019-01-19T05:58:08.685Z,31.8
2019-01-19T05:58:58.458Z,33.6
2019-01-19T05:59:49.535Z,34.9
2019-01-19T06:00:39.690Z,35.9
2019-01-19T06:01:31.660Z,36.5
2019-01-19T06:02:20.062Z,36.9
2019-01-19T06:03:09.869Z,37
2019-01-19T06:04:00.175Z,36.8
2019-01-19T06:06:55.912Z,36.8
2019-01-19T06:07:37.359Z,36.4
2019-01-19T06:08:27.912Z,36.1
2019-01-19T06:09:17.202Z,35.7
2019-01-19T06:10:06.677Z,35.1
2019-01-19T06:10:57.469Z,34.5
2019-01-19T06:11:47.907Z,33.8
2019-01-19T06:12:37.567Z,32.9
2019-01-19T06:13:27.433Z,32.2
2019-01-19T06:14:17.684Z,31.4
2019-01-19T06:15:07.233Z,30.8
2019-01-19T06:15:57.839Z,30.1
2019-01-19T06:16:47.964Z,29.6
2019-01-19T06:17:36.803Z,29.3
2019-01-19T06:18:27.731Z,28.9
2019-01-19T06:19:18.441Z,28.6
2019-01-19T06:20:07.979Z,28.4
2019-01-19T06:20:57.639Z,28.1
2019-01-19T06:21:47.063Z,28
2019-01-19T06:23:28.683Z,27.6
2019-01-19T06:24:17.531Z,27.4
2019-01-19T06:25:08.325Z,27.3
2019-01-19T06:25:58.848Z,27.2
2019-01-19T06:26:47.693Z,27.1
2019-01-19T06:27:38.330Z,28.3
2019-01-19T06:28:28.801Z,31.3
2019-01-19T06:29:19.078Z,33.3
2019-01-19T06:30:07.955Z,34.8
2019-01-19T06:30:58.005Z,35.7
2019-01-19T06:31:48.191Z,36.4
2019-01-19T06:32:38.748Z,36.8
2019-01-19T06:33:28.943Z,36.9
2019-01-19T06:34:17.996Z,36.8
2019-01-19T06:35:07.570Z,36.8
2019-01-19T06:35:58.873Z,36.8
2019-01-19T06:36:57.858Z,36.4
2019-01-19T06:37:39.066Z,36
2019-01-19T06:38:29.509Z,35.6
2019-01-19T06:39:19.756Z,34.9
2019-01-19T06:40:09.538Z,34.1
2019-01-19T06:40:59.790Z,33.3
2019-01-19T06:41:49.247Z,32.4
2019-01-19T06:42:39.892Z,31.6
2019-01-19T06:43:29.650Z,30.9
2019-01-19T06:44:19.767Z,30.3
2019-01-19T06:45:09.046Z,29.7
2019-01-19T06:45:59.242Z,29.3
2019-01-19T06:46:50.715Z,28.9
2019-01-19T06:47:39.647Z,28.6
2019-01-19T06:48:28.929Z,28.4
2019-01-19T06:49:19.304Z,28.2
2019-01-19T06:50:10.482Z,28
2019-01-19T06:51:49.659Z,27.6
2019-01-19T06:52:39.714Z,27.5
2019-01-19T06:53:30.679Z,27.3
2019-01-19T06:54:19.851Z,27.3
2019-01-19T06:55:09.934Z,27.1
2019-01-19T06:56:00.747Z,26.9
2019-01-19T06:56:50.354Z,26.9
2019-01-19T06:57:40.122Z,29
2019-01-19T06:58:32.697Z,31.6
2019-01-19T06:59:27.242Z,33.6
2019-01-19T07:00:10.824Z,34.9
2019-01-19T07:01:01.154Z,35.7
2019-01-19T07:01:50.703Z,36.3
2019-01-19T07:02:40.396Z,36.6
2019-01-19T07:03:31.656Z,36.6
2019-01-19T07:04:20.233Z,36.6
2019-01-19T07:06:48.173Z,36
2019-01-19T07:07:37.810Z,35.4
2019-01-19T07:08:29.588Z,34.6
2019-01-19T07:09:17.933Z,33.8
2019-01-19T07:10:07.210Z,32.9
2019-01-19T07:10:58.303Z,32.1
2019-01-19T07:11:48.156Z,31.2
2019-01-19T07:12:38.125Z,30.4
2019-01-19T07:13:27.657Z,29.8
2019-01-19T07:14:17.965Z,29.3
2019-01-19T07:15:08.080Z,28.9
2019-01-19T07:15:57.967Z,28.7
2019-01-19T07:16:47.690Z,28.4
2019-01-19T07:17:38.770Z,28.2
2019-01-19T07:18:28.365Z,28
2019-01-19T07:20:07.609Z,27.6
2019-01-19T07:20:57.733Z,27.5
2019-01-19T07:21:49.115Z,27.4
2019-01-19T07:22:38.849Z,27.2
2019-01-19T07:23:28.892Z,27.1
2019-01-19T07:24:19.269Z,26.9
2019-01-19T07:25:08.919Z,26.8
2019-01-19T07:25:58.835Z,26.8
2019-01-19T07:26:48.830Z,26.6
2019-01-19T07:27:38.889Z,26.6
2019-01-19T07:28:28.450Z,26.4
2019-01-19T07:29:19.550Z,28.6
2019-01-19T07:30:09.149Z,31.3
2019-01-19T07:30:59.356Z,33.2
2019-01-19T07:31:49.757Z,34.4
2019-01-19T07:32:38.929Z,35.2
2019-01-19T07:33:29.383Z,35.6
2019-01-19T07:34:18.787Z,35.8
2019-01-19T07:35:08.749Z,35.6
2019-01-19T07:35:59.289Z,35.1
2019-01-19T07:36:49.129Z,34.3
2019-01-19T07:37:39.609Z,33.3
2019-01-19T07:38:29.219Z,32.1
2019-01-19T07:39:20.201Z,31
2019-01-19T07:40:10.071Z,30
2019-01-19T07:40:59.005Z,29.3
2019-01-19T07:41:49.931Z,28.7
2019-01-19T07:42:41.491Z,28.3
2019-01-19T07:43:29.685Z,28
2019-01-19T07:44:20.063Z,27.8
2019-01-19T07:45:10.731Z,27.6
2019-01-19T07:46:00.171Z,27.4
2019-01-19T07:46:58.128Z,27.3
2019-01-19T07:47:41.934Z,27.2
2019-01-19T07:48:30.540Z,27.1
2019-01-19T07:49:20.870Z,30.1
2019-01-19T07:50:10.816Z,32.2
2019-01-19T07:51:00.915Z,33.4
2019-01-19T07:51:50.800Z,34.1
2019-01-19T07:52:40.939Z,34.3
2019-01-19T07:53:30.907Z,33.8
2019-01-19T07:54:20.675Z,33.1
2019-01-19T07:55:11.004Z,31.9
2019-01-19T07:56:01.097Z,30.6
2019-01-19T07:56:52.693Z,29.4
2019-01-19T07:57:41.045Z,28.6
2019-01-19T07:58:31.475Z,28.1
2019-01-19T07:59:22.744Z,27.7
2019-01-19T08:00:11.037Z,27.4
2019-01-19T08:01:01.397Z,27.3
2019-01-19T08:01:51.178Z,27.1
2019-01-19T08:02:40.375Z,27
2019-01-19T08:03:31.579Z,26.9
2019-01-19T08:04:21.880Z,26.8
2019-01-19T08:05:12.667Z,26.7
2019-01-19T08:06:02.007Z,26.6
2019-01-19T08:06:53.199Z,26.4
2019-01-19T08:07:41.336Z,26.3
2019-01-19T08:08:33.534Z,26.3
2019-01-19T08:09:21.681Z,26.2
2019-01-19T08:10:11.736Z,26.1
2019-01-19T08:11:01.771Z,26
2019-01-19T08:11:52.156Z,25.9
2019-01-19T08:12:41.904Z,27.9
2019-01-19T08:13:32.084Z,30.8
2019-01-19T08:14:22.049Z,32.8
2019-01-19T08:15:12.376Z,34.1
2019-01-19T08:16:02.521Z,34.8
2019-01-19T08:16:52.186Z,35.1
2019-01-19T08:17:42.524Z,35.3
2019-01-19T08:18:32.581Z,35
2019-01-19T08:19:22.359Z,34.4
2019-01-19T08:20:12.736Z,33.5
2019-01-19T08:21:01.983Z,32.4
2019-01-19T08:21:52.638Z,31.2
2019-01-19T08:22:42.425Z,30.1
2019-01-19T08:23:34.213Z,29.2
2019-01-19T08:24:22.488Z,28.4
2019-01-19T08:25:12.557Z,28.1
2019-01-19T08:26:03.368Z,27.7
2019-01-19T08:26:52.948Z,27.4
2019-01-19T08:27:42.680Z,27.3
2019-01-19T08:28:33.286Z,27.1
2019-01-19T08:29:24.931Z,26.9
2019-01-19T08:30:13.388Z,26.8
2019-01-19T08:31:03.430Z,26.7
2019-01-19T08:31:53.308Z,27.9
2019-01-19T08:32:43.573Z,30.8
2019-01-19T08:33:33.380Z,32.6
2019-01-19T08:34:23.675Z,33.7
2019-01-19T08:35:13.740Z,34.2
2019-01-19T08:36:02.917Z,34.3
2019-01-19T08:36:54.087Z,33.8
2019-01-19T08:37:44.177Z,33
2019-01-19T08:38:33.645Z,31.8
2019-01-19T08:39:25.009Z,30.5
2019-01-19T08:40:14.314Z,29.4
2019-01-19T08:41:05.422Z,28.6
2019-01-19T08:41:54.455Z,27.9
2019-01-19T08:42:43.924Z,27.6
2019-01-19T08:43:34.278Z,27.3
2019-01-19T08:44:23.849Z,27.1
2019-01-19T08:45:14.127Z,26.9
2019-01-19T08:46:05.777Z,26.8
2019-01-19T08:46:54.564Z,26.7
2019-01-19T08:47:44.547Z,26.6
2019-01-19T08:48:34.922Z,26.5
2019-01-19T08:49:24.725Z,26.4
2019-01-19T08:50:15.024Z,26.3
2019-01-19T08:51:05.076Z,26.2
2019-01-19T08:51:55.126Z,26.1
2019-01-19T08:52:45.169Z,26.1
2019-01-19T08:53:35.216Z,25.9
2019-01-19T08:54:25.074Z,25.9
2019-01-19T08:55:15.073Z,25.8
2019-01-19T08:56:05.106Z,25.8
2019-01-19T08:56:55.171Z,25.7
2019-01-19T08:57:45.506Z,25.6
2019-01-19T08:58:35.021Z,25.6
2019-01-19T08:59:25.596Z,25.5
2019-01-19T09:00:14.841Z,25.5
2019-01-19T09:01:05.733Z,25.4
2019-01-19T09:01:55.881Z,25.4
2019-01-19T09:02:45.863Z,25.3
2019-01-19T09:03:35.346Z,25.3
2019-01-19T09:04:25.763Z,25.3
2019-01-19T09:05:15.235Z,25.2
2019-01-19T09:06:05.850Z,25.1
2019-01-19T09:06:56.115Z,25.1
2019-01-19T09:07:45.439Z,25.1
2019-01-19T09:08:36.268Z,25.1
2019-01-19T09:09:26.075Z,25
2019-01-19T09:10:16.078Z,25
2019-01-19T09:11:05.918Z,25
2019-01-19T09:11:56.510Z,24.9
2019-01-19T09:12:46.020Z,24.9
2019-01-19T09:13:36.927Z,24.9
2019-01-19T09:14:26.609Z,24.9
2019-01-19T09:15:16.223Z,24.8
2019-01-19T09:16:06.732Z,24.8
2019-01-19T09:16:58.107Z,24.8
2019-01-19T09:17:46.862Z,24.8
2019-01-19T09:18:38.310Z,24.7
2019-01-19T09:19:26.722Z,24.7
2019-01-19T09:20:16.740Z,24.6
2019-01-19T09:21:06.535Z,24.6
2019-01-19T09:21:57.663Z,24.6
2019-01-19T09:22:46.979Z,24.6
2019-01-19T09:23:36.462Z,24.6
2019-01-19T09:24:27.361Z,24.6
2019-01-19T09:25:16.857Z,24.5
2019-01-19T09:26:07.179Z,24.4
2019-01-19T09:26:56.634Z,24.4
2019-01-19T09:27:46.786Z,24.5
2019-01-19T09:28:38.815Z,24.5
2019-01-19T09:29:26.837Z,24.4
2019-01-19T09:30:17.167Z,24.4
2019-01-19T09:31:07.269Z,24.4
2019-01-19T09:31:57.304Z,24.3
2019-01-19T09:32:47.644Z,24.3
2019-01-19T09:33:37.673Z,24.3
2019-01-19T09:34:27.541Z,24.3
2019-01-19T09:35:17.774Z,24.3
2019-01-19T09:36:08.105Z,24.3
2019-01-19T09:36:57.881Z,24.3
2019-01-19T09:37:52.971Z,24.3
2019-01-19T09:38:38.051Z,24.3
2019-01-19T09:39:28.336Z,24.2
2019-01-19T09:40:19.806Z,24.1
2019-01-19T09:41:07.911Z,24.1
2019-01-19T09:41:58.247Z,24.1
2019-01-19T09:42:48.006Z,24.1
2019-01-19T09:43:38.410Z,24.1
2019-01-19T09:44:28.408Z,24.1
2019-01-19T09:45:18.716Z,24.1
2019-01-19T09:46:08.498Z,24.1
2019-01-19T09:46:58.015Z,24.1
2019-01-19T09:47:48.669Z,24
2019-01-19T09:48:38.943Z,24
2019-01-19T09:49:28.828Z,24
2019-01-19T09:50:18.782Z,24.1
2019-01-19T09:51:08.840Z,23.9
2019-01-19T09:51:58.627Z,23.9
2019-01-19T09:52:49.350Z,23.9
2019-01-19T09:53:39.010Z,23.9
2019-01-19T09:54:30.818Z,23.9
2019-01-19T09:55:18.352Z,23.9
2019-01-19T09:56:09.567Z,23.9
2019-01-19T09:56:59.535Z,23.9
2019-01-19T09:57:49.340Z,23.8
2019-01-19T09:58:39.617Z,23.9
2019-01-19T09:59:29.683Z,23.8
2019-01-19T10:00:19.514Z,23.8
2019-01-19T10:01:09.639Z,23.8
2019-01-19T10:01:59.892Z,23.8
2019-01-19T10:02:49.136Z,23.8
2019-01-19T10:03:39.979Z,23.8
2019-01-19T10:04:29.524Z,23.7
2019-01-19T10:05:19.827Z,23.7
2019-01-19T10:07:54.554Z,23.6
2019-01-19T10:08:37.064Z,23.6
2019-01-19T10:09:27.167Z,23.6
2019-01-19T10:10:17.537Z,23.6
2019-01-19T10:11:08.089Z,23.6
2019-01-19T10:11:57.964Z,23.6
2019-01-19T10:12:47.411Z,23.6
2019-01-19T10:13:37.769Z,23.6
2019-01-19T10:14:28.124Z,23.6
2019-01-19T10:15:18.190Z,23.5
2019-01-19T10:16:07.329Z,23.6
2019-01-19T10:16:58.211Z,23.6
2019-01-19T10:17:47.993Z,23.5
2019-01-19T10:18:37.821Z,23.4
2019-01-19T10:19:28.103Z,23.5
2019-01-19T10:20:18.483Z,23.5
2019-01-19T10:21:08.823Z,23.5
2019-01-19T10:21:58.818Z,23.4
2019-01-19T10:22:48.672Z,23.4
2019-01-19T10:23:38.374Z,23.4
2019-01-19T10:24:29.016Z,23.4
2019-01-19T10:25:18.510Z,23.4
2019-01-19T10:26:08.856Z,23.4
2019-01-19T10:26:58.645Z,23.4
2019-01-19T10:27:48.378Z,23.3
2019-01-19T10:28:39.276Z,23.4
2019-01-19T10:29:28.044Z,23.4
2019-01-19T10:30:18.900Z,23.3
2019-01-19T10:31:09.196Z,23.3
2019-01-19T10:31:58.953Z,23.3
2019-01-19T10:32:48.532Z,23.3
2019-01-19T10:33:38.847Z,23.3
2019-01-19T10:34:29.195Z,23.3
2019-01-19T10:35:18.697Z,23.3
2019-01-19T10:36:08.655Z,23.3
2019-01-19T10:36:59.292Z,23.2
2019-01-19T10:37:57.527Z,23.2
2019-01-19T10:38:38.968Z,23.2
2019-01-19T10:39:29.120Z,23.2
2019-01-19T10:40:19.529Z,23.2
2019-01-19T10:41:09.905Z,23.1
2019-01-19T10:41:58.803Z,23.1
2019-01-19T10:42:49.494Z,23.2
2019-01-19T10:43:40.054Z,23.2
2019-01-19T10:44:29.670Z,23.1
2019-01-19T10:45:20.444Z,23.2
2019-01-19T10:46:09.905Z,23.1
2019-01-19T10:46:59.734Z,23.1
2019-01-19T10:47:51.777Z,23.1
2019-01-19T10:48:40.362Z,23.1
2019-01-19T10:49:30.142Z,23.1
2019-01-19T10:50:20.534Z,23.1
2019-01-19T10:51:10.546Z,23
2019-01-19T10:52:07.124Z,23.1
2019-01-19T10:52:50.685Z,23
2019-01-19T10:53:40.683Z,23
2019-01-19T10:54:30.539Z,23
2019-01-19T10:55:19.474Z,23
2019-01-19T10:56:10.469Z,23
2019-01-19T10:57:00.446Z,22.9
2019-01-19T10:57:49.957Z,22.9
2019-01-19T10:58:40.268Z,22.9
2019-01-19T10:59:30.113Z,22.9
2019-01-19T11:00:20.943Z,22.9
2019-01-19T11:01:10.453Z,22.9
2019-01-19T11:02:02.497Z,22.9
2019-01-19T11:02:51.108Z,23
2019-01-19T11:03:41.370Z,22.9
2019-01-19T11:04:30.598Z,22.9
2019-01-19T11:05:21.527Z,22.9
2019-01-19T11:06:11.651Z,22.9
2019-01-19T11:07:01.337Z,22.9
2019-01-19T11:07:51.385Z,22.9
2019-01-19T11:08:41.460Z,22.9
2019-01-19T11:09:31.518Z,22.8
2019-01-19T11:10:21.955Z,22.8
2019-01-19T11:11:12.168Z,22.8
2019-01-19T11:12:02.258Z,22.8
2019-01-19T11:12:51.725Z,22.8
2019-01-19T11:13:41.743Z,22.8
2019-01-19T11:14:31.278Z,22.8
2019-01-19T11:15:22.230Z,22.8
2019-01-19T11:16:12.225Z,22.8
2019-01-19T11:17:01.747Z,22.8
2019-01-19T11:17:51.375Z,22.8
2019-01-19T11:18:41.640Z,22.7
2019-01-19T11:19:31.905Z,22.7